Map

Track Data

SID SEASON NUMBER BASIN SUBBASIN NAME ISO_TIME NATURE LAT LON WMO_WIND WMO_PRES WMO_AGENCY TRACK_TYPE DIST2LAND LANDFALL IFLAG USA_AGENCY USA_ATCF_ID USA_LAT USA_LON USA_RECORD USA_STATUS USA_WIND USA_PRES USA_SSHS USA_R34_NE USA_R34_SE USA_R34_SW USA_R34_NW USA_R50_NE USA_R50_SE USA_R50_SW USA_R50_NW USA_R64_NE USA_R64_SE USA_R64_SW USA_R64_NW USA_POCI USA_ROCI USA_RMW USA_EYE TOKYO_LAT TOKYO_LON TOKYO_GRADE TOKYO_WIND TOKYO_PRES TOKYO_R50_DIR TOKYO_R50_LONG TOKYO_R50_SHORT TOKYO_R30_DIR TOKYO_R30_LONG TOKYO_R30_SHORT TOKYO_LAND CMA_LAT CMA_LON CMA_CAT CMA_WIND CMA_PRES HKO_LAT HKO_LON HKO_CAT HKO_WIND HKO_PRES NEWDELHI_LAT NEWDELHI_LON NEWDELHI_GRADE NEWDELHI_WIND NEWDELHI_PRES NEWDELHI_CI NEWDELHI_DP NEWDELHI_POCI REUNION_LAT REUNION_LON REUNION_TYPE REUNION_WIND REUNION_PRES REUNION_TNUM REUNION_CI REUNION_RMW REUNION_R34_NE REUNION_R34_SE REUNION_R34_SW REUNION_R34_NW REUNION_R50_NE REUNION_R50_SE REUNION_R50_SW REUNION_R50_NW REUNION_R64_NE REUNION_R64_SE REUNION_R64_SW REUNION_R64_NW BOM_LAT BOM_LON BOM_TYPE BOM_WIND BOM_PRES BOM_TNUM BOM_CI BOM_RMW BOM_R34_NE BOM_R34_SE BOM_R34_SW BOM_R34_NW BOM_R50_NE BOM_R50_SE BOM_R50_SW BOM_R50_NW BOM_R64_NE BOM_R64_SE BOM_R64_SW BOM_R64_NW BOM_ROCI BOM_POCI BOM_EYE BOM_POS_METHOD BOM_PRES_METHOD NADI_LAT NADI_LON NADI_CAT NADI_WIND NADI_PRES WELLINGTON_LAT WELLINGTON_LON WELLINGTON_WIND WELLINGTON_PRES DS824_LAT DS824_LON DS824_STAGE DS824_WIND DS824_PRES TD9636_LAT TD9636_LON TD9636_STAGE TD9636_WIND TD9636_PRES TD9635_LAT TD9635_LON TD9635_WIND TD9635_PRES TD9635_ROCI NEUMANN_LAT NEUMANN_LON NEUMANN_CLASS NEUMANN_WIND NEUMANN_PRES MLC_LAT MLC_LON MLC_CLASS MLC_WIND MLC_PRES USA_GUST BOM_GUST BOM_GUST_PER REUNION_GUST REUNION_GUST_PER USA_SEAHGT USA_SEARAD_NE USA_SEARAD_SE USA_SEARAD_SW USA_SEARAD_NW STORM_SPEED STORM_DIR
1960331N10088 1960 94 NI BB NOT_NAMED 1960-11-25 18:00:00 TS 10.2000 87.8000 main 721 710 O________O____ jtwc_io IO121960 10.2000 87.8000 -1 10.2000 87.8000 TC 5 315
1960331N10088 1960 94 NI BB NOT_NAMED 1960-11-25 21:00:00 TS 10.3800 87.6201 main 710 705 P________P____ IO121960 10.3800 87.6201 -1 10.3800 87.6201 TC 4 316
1960331N10088 1960 94 NI BB NOT_NAMED 1960-11-26 00:00:00 TS 10.5000 87.5000 main 705 705 O________O____ jtwc_io IO121960 10.5000 87.5000 -1 10.5000 87.5000 TC 25 2 315
1960331N10088 1960 94 NI BB NOT_NAMED 1960-11-26 03:00:00 TS 10.5200 87.4800 main 705 705 P________PO___ IO121960 10.5225 87.4775 -1 10.5225 87.4775 TC 25 10.5000 87.5000 1 0 0
1960331N10088 1960 94 NI BB NOT_NAMED 1960-11-26 06:00:00 TS 10.5000 87.5000 main 705 705 O________OP___ jtwc_io IO121960 10.5000 87.5000 -1 10.5000 87.5000 TC 25 10.5000 87.5000 1 0 0
1960331N10088 1960 94 NI BB NOT_NAMED 1960-11-26 09:00:00 TS 10.5000 87.5000 main 705 705 P________PP___ IO121960 10.5000 87.5000 -1 10.5000 87.5000 TC 25 10.5000 87.5000 1 0 0
1960331N10088 1960 94 NI BB NOT_NAMED 1960-11-26 12:00:00 TS 10.5000 87.5000 main 705 705 O________OP___ jtwc_io IO121960 10.5000 87.5000 -1 10.5000 87.5000 TC 25 10.5000 87.5000 1 0 0
1960331N10088 1960 94 NI BB NOT_NAMED 1960-11-26 15:00:00 TS 10.5000 87.5000 main 705 705 P________PO___ IO121960 10.5000 87.5000 -1 10.5000 87.5000 TC 25 10.5000 87.5000 1 0 0
1960331N10088 1960 94 NI BB NOT_NAMED 1960-11-26 18:00:00 TS 10.5000 87.5000 main 705 705 O________OP___ jtwc_io IO121960 10.5000 87.5000 -1 10.5000 87.5000 TC 25 10.5000 87.5000 1 0 0
1960331N10088 1960 94 NI BB NOT_NAMED 1960-11-26 21:00:00 TS 10.5000 87.5000 main 705 705 P________PP___ IO121960 10.5000 87.5000 -1 10.5000 87.5000 TC 25 10.5000 87.5000 1 0 0
1960331N10088 1960 94 NI BB NOT_NAMED 1960-11-27 00:00:00 TS 10.5000 87.5000 main 705 705 O________OP___ jtwc_io IO121960 10.5000 87.5000 -1 10.5000 87.5000 TC 25 10.5000 87.5000 1 0 0
1960331N10088 1960 94 NI BB NOT_NAMED 1960-11-27 03:00:00 TS 10.5000 87.5000 main 705 705 P________PO___ IO121960 10.5000 87.5000 -1 10.5000 87.5000 TC 25 10.5000 87.5000 1 0 0
1960331N10088 1960 94 NI BB NOT_NAMED 1960-11-27 06:00:00 TS 10.5000 87.5000 main 705 705 O________OP___ jtwc_io IO121960 10.5000 87.5000 -1 10.5000 87.5000 TC 25 10.5000 87.5000 1 0 0
1960331N10088 1960 94 NI BB NOT_NAMED 1960-11-27 09:00:00 TS 10.5000 87.5000 main 705 705 P________PP___ IO121960 10.5000 87.5000 -1 10.5000 87.5000 TC 25 10.5000 87.5000 1 0 0
1960331N10088 1960 94 NI BB NOT_NAMED 1960-11-27 12:00:00 TS 10.5000 87.5000 main 705 705 O________OP___ jtwc_io IO121960 10.5000 87.5000 -1 10.5000 87.5000 TC 25 10.5000 87.5000 1 0 0
1960331N10088 1960 94 NI BB NOT_NAMED 1960-11-27 15:00:00 TS 10.5000 87.5000 main 705 705 P________PO___ IO121960 10.5000 87.5000 -1 10.5000 87.5000 TC 25 10.5000 87.5000 1 0 0
1960331N10088 1960 94 NI BB NOT_NAMED 1960-11-27 18:00:00 TS 10.5000 87.5000 main 705 705 O________OP___ jtwc_io IO121960 10.5000 87.5000 -1 10.5000 87.5000 TC 25 10.5000 87.5000 1 0 0
1960331N10088 1960 94 NI BB NOT_NAMED 1960-11-27 21:00:00 TS 10.5000 87.5000 main 705 705 P________PP___ IO121960 10.5000 87.5000 -1 10.5000 87.5000 TC 25 10.5000 87.5000 1 0 0
1960331N10088 1960 94 NI BB NOT_NAMED 1960-11-28 00:00:00 TS 10.5000 87.5000 main 705 705 O________OP___ jtwc_io IO121960 10.5000 87.5000 -1 10.5000 87.5000 TC 25 10.5000 87.5000 1 0 0
1960331N10088 1960 94 NI BB NOT_NAMED 1960-11-28 03:00:00 TS 10.5000 87.5000 main 705 705 P________PO___ IO121960 10.5000 87.5000 -1 10.5000 87.5000 TC 25 10.5000 87.5000 1 0 0
1960331N10088 1960 94 NI BB NOT_NAMED 1960-11-28 06:00:00 TS 10.5000 87.5000 main 705 705 O________OP___ jtwc_io IO121960 10.5000 87.5000 -1 10.5000 87.5000 TC 25 10.5000 87.5000 1 0 0
1960331N10088 1960 94 NI BB NOT_NAMED 1960-11-28 09:00:00 TS 10.5000 87.5000 main 705 705 P________PP___ IO121960 10.5000 87.5000 -1 10.5000 87.5000 TC 25 10.5000 87.5000 1 0 0
1960331N10088 1960 94 NI BB NOT_NAMED 1960-11-28 12:00:00 TS 10.5000 87.5000 main 705 705 O________OP___ jtwc_io IO121960 10.5000 87.5000 -1 10.5000 87.5000 TC 25 10.5000 87.5000 1 0 0
1960331N10088 1960 94 NI BB NOT_NAMED 1960-11-28 15:00:00 TS 10.5000 87.5000 main 705 705 P________PO___ IO121960 10.5000 87.5000 -1 10.5000 87.5000 TC 25 10.5000 87.5000 1 0 0
1960331N10088 1960 94 NI BB NOT_NAMED 1960-11-28 18:00:00 TS 10.4946 87.5081 main 705 705 O________OP___ jtwc_io IO121960 10.5000 87.5000 -1 10.5000 87.5000 TC 25 10.4837 87.5243 1 0 0
1960331N10088 1960 94 NI BB NOT_NAMED 1960-11-28 21:00:00 TS 10.4850 87.5200 main 705 705 P________PP___ IO121960 10.4925 87.5075 -1 10.4925 87.5075 TC 25 10.4700 87.5449 1 0 0
1960331N10088 1960 94 NI BB NOT_NAMED 1960-11-29 00:00:00 TS 10.4904 87.5144 main 705 705 O________OP___ jtwc_io IO121960 10.5000 87.5000 -1 10.5000 87.5000 TC 25 10.4712 87.5431 1 1 313
1960331N10088 1960 94 NI BB NOT_NAMED 1960-11-29 03:00:00 TS 10.5233 87.4817 main 705 700 P________PO___ IO121960 10.5350 87.4725 -1 10.5350 87.4725 TC 25 10.5000 87.5000 1 2 311
1960331N10088 1960 94 NI BB NOT_NAMED 1960-11-29 06:00:00 TS 10.5904 87.3964 main 700 680 O________OP___ jtwc_io IO121960 10.6000 87.4000 -1 10.6000 87.4000 TC 25 10.5713 87.3891 1 3 280
1960331N10088 1960 94 NI BB NOT_NAMED 1960-11-29 09:00:00 TS 10.5728 87.1938 main 680 670 P________PP___ IO121960 10.6925 87.2650 -1 10.6925 87.2650 TC 25 10.6701 87.2376 1 3 273
1960331N10088 1960 94 NI BB NOT_NAMED 1960-11-29 12:00:00 TS 10.6097 87.0478 main 660 660 O________OP___ jtwc_io IO121960 10.8000 87.1000 -1 10.8000 87.1000 TC 25 10.7838 87.0672 1 3 293
1960331N10088 1960 94 NI BB NOT_NAMED 1960-11-29 15:00:00 TS 10.6775 86.9459 main 655 650 P________PO___ IO121960 10.9000 86.9500 -1 10.9000 86.9500 TC 25 10.9000 86.9000 1 3 315
1960331N10088 1960 94 NI BB NOT_NAMED 1960-11-29 18:00:00 TS 10.8182 86.8374 main 650 645 O________OP___ jtwc_io IO121960 11.0000 86.8000 -1 11.0000 86.8000 TC 25 11.0041 86.7556 1 4 322
1960331N10088 1960 94 NI BB NOT_NAMED 1960-11-29 21:00:00 TS 11.0009 86.6868 main 650 635 P________PP___ IO121960 11.1000 86.6425 -1 11.1000 86.6425 TC 25 11.1075 86.6200 1 5 319
1960331N10088 1960 94 NI BB NOT_NAMED 1960-11-30 00:00:00 TS 11.1638 86.5306 main 641 631 O________OP___ jtwc_io IO121960 11.2000 86.5000 -1 11.2000 86.5000 TC 25 11.2072 86.4994 1 4 316
1960331N10088 1960 94 NI BB NOT_NAMED 1960-11-30 03:00:00 TS 11.3050 86.3850 main 637 627 P________PO___ IO121960 11.3075 86.3775 -1 11.3075 86.3775 TC 25 11.3000 86.4000 1 3 317
1960331N10088 1960 94 NI BB NOT_NAMED 1960-11-30 06:00:00 TS 11.3941 86.3108 main 633 633 O________OP___ jtwc_io IO121960 11.4000 86.3000 -1 11.4000 86.3000 TC 25 11.3821 86.3324 1 2 329
1960331N10088 1960 94 NI BB NOT_NAMED 1960-11-30 09:00:00 TS 11.4525 86.2950 main 639 639 P________PP___ IO121960 11.4500 86.3000 -1 11.4500 86.3000 TC 25 11.4575 86.2849 1 1 338
1960331N10088 1960 94 NI BB NOT_NAMED 1960-11-30 12:00:00 TS 11.5097 86.2817 main 639 636 O________OP___ jtwc_io IO121960 11.5000 86.3000 -1 11.5000 86.3000 TC 25 11.5290 86.2449 1 2 329
1960331N10088 1960 94 NI BB NOT_NAMED 1960-11-30 15:00:00 TS 11.6000 86.2050 main 636 633 P________PO___ IO121960 11.6000 86.2075 -1 11.6000 86.2075 TC 25 11.6000 86.2000 1 2 317
1960331N10088 1960 94 NI BB NOT_NAMED 1960-11-30 18:00:00 TS 11.6890 86.1134 main 633 633 O________OP___ jtwc_io IO121960 11.7000 86.1000 -1 11.7000 86.1000 TC 25 11.6669 86.1403 1 2 316
1960331N10088 1960 94 NI BB NOT_NAMED 1960-11-30 21:00:00 TS 11.7450 86.0575 main 633 629 P________PP___ IO121960 11.7500 86.0500 -1 11.7500 86.0500 TC 25 11.7350 86.0724 1 2 316
1960331N10088 1960 94 NI BB NOT_NAMED 1960-12-01 00:00:00 TS 11.8035 85.9978 main 629 623 O________OP___ jtwc_io IO121960 11.8000 86.0000 -1 11.8000 86.0000 TC 25 11.8106 85.9934 1 2 316
1960331N10088 1960 94 NI BB NOT_NAMED 1960-12-01 03:00:00 TS 11.8900 85.9100 main 623 611 P________PO___ IO121960 11.8850 85.9150 -1 11.8850 85.9150 TC 25 11.9000 85.9000 1 3 315
1960331N10088 1960 94 NI BB NOT_NAMED 1960-12-01 06:00:00 TS 12.0035 85.7965 main 611 599 O________OP___ jtwc_io IO121960 12.0000 85.8000 -1 12.0000 85.8000 TC 25 12.0106 85.7894 1 4 315
1960331N10088 1960 94 NI BB NOT_NAMED 1960-12-01 09:00:00 TS 12.1450 85.6550 main 599 575 P________PP___ IO121960 12.1500 85.6500 -1 12.1500 85.6500 TC 25 12.1350 85.6650 1 4 316
1960331N10088 1960 94 NI BB NOT_NAMED 1960-12-01 12:00:00 TS 12.2890 85.5110 main 575 562 O________OP___ jtwc_io IO121960 12.3000 85.5000 -1 12.3000 85.5000 TC 25 12.2669 85.5331 1 4 315
1960331N10088 1960 94 NI BB NOT_NAMED 1960-12-01 15:00:00 TS 12.4000 85.4000 main 562 549 P________PO___ IO121960 12.4000 85.4000 -1 12.4000 85.4000 TC 25 12.4000 85.4000 1 3 316
1960331N10088 1960 94 NI BB NOT_NAMED 1960-12-01 18:00:00 TS 12.5118 85.2883 main 549 537 O________OP___ jtwc_io IO121960 12.5000 85.3000 -1 12.5000 85.3000 TC 25 12.5294 85.2707 1 3 316
1960331N10088 1960 94 NI BB NOT_NAMED 1960-12-01 21:00:00 TS 12.6450 85.1551 main 537 512 P________PP___ IO121960 12.6375 85.1626 -1 12.6375 85.1626 TC 25 12.6550 85.1451 1 4 316
1960331N10088 1960 94 NI BB NOT_NAMED 1960-12-02 00:00:00 TS 12.7891 85.0110 main 512 499 O________OP___ jtwc_io IO121960 12.8000 85.0000 -1 12.8000 85.0000 TC 25 12.7782 85.0219 1 4 315
1960331N10088 1960 94 NI BB NOT_NAMED 1960-12-02 03:00:00 NR 12.9000 84.9000 main 499 __________O___ IO121960 -1 TC 12.9000 84.9000 1 3 316

About IBTrACS Database

This database is a web-friendly format of International Best Track Archive for Climate Stewardship (IBTrACS), a global best track data archive curated by NOAA dating back to 1842.

Updated: 2021-10-08